KJAN/JAN METAR and TAF weather

Enter ICAO airport designator
Station Type Date Time Source
KJAN METAR 2019/10/14 05:54 UTC NOAA

KJAN 140554Z 00000KT 10SM SCT110 13/11 A3006 RMK AO2 SLP177 T01330106 10156 20133 401940106 58007


Station Type Date Time Source
KJAN Decoded METAR 2019/10/14 05:54 UTC NOAA

Jackson, Jackson International Airport, MS, United States (KJAN) 32-19-11N 090-04-39W 89M
Oct 14, 2019 - 01:54 AM EDT / 2019.10.14 0554 UTC
Wind: Calm:0
Visibility: 10 mile(s):0
Sky conditions: partly cloudy
Temperature: 55.9 F (13.3 C)
Dew Point: 51.1 F (10.6 C)
Relative Humidity: 83%
Pressure (altimeter): 30.06 in. Hg (1017 hPa)
Pressure tendency: 0.02 inches (0.7 hPa) lower than three hours ago
ob: KJAN 140554Z 00000KT 10SM SCT110 13/11 A3006 RMK AO2 SLP177 T01330106 10156 20133 401940106 58007
cycle: 6

Station Type Date Time Source
KJAN TAF 2019/10/14 06:03 UTC NOAA

TAF KJAN 140601Z 1406/1506 VRB03KT P6SM SCT025 BKN050
FM141000 00000KT 6SM BR OVC050
FM141400 03003KT P6SM BKN050
FM142200 11004KT P6SM VCSH OVC050

Example: see airport list